createdAt,value
2023-03-23T00:00:00.309Z,5.5
2023-03-23T00:10:00.282Z,5.8
2023-03-23T00:20:00.235Z,5.3
2023-03-23T00:30:00.239Z,4.5
2023-03-23T00:40:00.277Z,5.5
2023-03-23T00:50:00.240Z,5.4
2023-03-23T01:00:00.278Z,4.8
2023-03-23T01:10:00.252Z,4.9
2023-03-23T01:20:00.278Z,4.8
2023-03-23T01:30:00.236Z,4.5
2023-03-23T01:40:00.286Z,4.5
2023-03-23T01:50:00.246Z,4.6
2023-03-23T02:00:00.280Z,5.2
2023-03-23T02:10:00.251Z,4.9
2023-03-23T02:20:00.247Z,5.4
2023-03-23T02:30:00.279Z,4.8
2023-03-23T02:40:00.295Z,5.8
2023-03-23T02:50:00.238Z,4.7
2023-03-23T03:00:00.250Z,5.1
2023-03-23T03:10:00.257Z,5.1
2023-03-23T03:20:00.248Z,4.6
2023-03-23T03:30:00.246Z,5.0
2023-03-23T03:40:00.264Z,5.6
2023-03-23T03:50:00.244Z,5.1
2023-03-23T04:00:00.251Z,5.0
2023-03-23T04:10:00.228Z,5.7
2023-03-23T04:20:00.362Z,15.1
2023-03-23T04:30:00.248Z,7.0
2023-03-23T04:40:00.276Z,13.2
2023-03-23T04:50:00.240Z,13.8
2023-03-23T05:00:00.280Z,7.6
2023-03-23T05:10:00.246Z,9.6
2023-03-23T05:20:00.313Z,6.3
2023-03-23T05:30:00.254Z,6.4
2023-03-23T05:40:00.302Z,12.8
2023-03-23T05:50:00.251Z,19.7
2023-03-23T06:00:00.296Z,21.1
2023-03-23T06:10:00.259Z,11.8
2023-03-23T06:20:00.246Z,21.7
2023-03-23T06:30:00.405Z,16.7
2023-03-23T06:40:00.387Z,20.3
2023-03-23T06:50:00.252Z,32.9
2023-03-23T07:00:00.258Z,35.5
2023-03-23T07:10:00.246Z,24.1
2023-03-23T07:20:00.253Z,22.8
2023-03-23T07:30:01.779Z,18.3
2023-03-23T07:40:00.316Z,15.9
2023-03-23T07:50:00.256Z,14.5
2023-03-23T08:00:00.238Z,11.6
2023-03-23T08:10:00.486Z,11.1
2023-03-23T08:20:00.517Z,12.4
2023-03-23T08:30:00.266Z,20.6
2023-03-23T08:40:00.319Z,7.9
2023-03-23T08:50:00.251Z,8.3
2023-03-23T09:00:00.241Z,7.0
2023-03-23T09:10:00.241Z,7.5
2023-03-23T09:20:00.345Z,6.2
2023-03-23T09:30:00.288Z,6.8
2023-03-23T09:40:06.743Z,7.5
2023-03-23T09:50:00.295Z,8.1
2023-03-23T10:00:00.274Z,5.7
2023-03-23T10:10:00.237Z,5.0
2023-03-23T10:20:00.258Z,4.3
2023-03-23T10:30:00.273Z,4.8
2023-03-23T10:40:00.233Z,5.8
2023-03-23T10:50:00.290Z,6.2
2023-03-23T11:00:00.249Z,6.8
2023-03-23T11:10:00.235Z,8.0
2023-03-23T11:20:00.607Z,7.6
2023-03-23T11:30:00.276Z,7.4
2023-03-23T11:40:00.224Z,7.6
2023-03-23T11:50:00.248Z,7.2
2023-03-23T12:00:00.305Z,5.7
2023-03-23T12:10:00.246Z,4.7
2023-03-23T12:20:00.272Z,5.0
2023-03-23T12:30:02.294Z,6.7
2023-03-23T12:40:00.246Z,5.1
2023-03-23T12:50:00.273Z,4.0
2023-03-23T13:00:00.238Z,4.0
2023-03-23T13:10:00.285Z,4.2
2023-03-23T13:20:00.254Z,5.7
2023-03-23T13:30:00.251Z,4.1
2023-03-23T13:40:00.266Z,4.2
2023-03-23T13:50:00.252Z,5.1
2023-03-23T14:00:00.248Z,5.1
2023-03-23T14:10:00.255Z,5.3
2023-03-23T14:20:00.249Z,3.8
2023-03-23T14:30:00.247Z,4.2
2023-03-23T14:40:00.260Z,5.3
2023-03-23T14:50:00.245Z,4.5
2023-03-23T15:00:00.282Z,4.8
2023-03-23T15:10:00.239Z,4.7
2023-03-23T15:20:00.251Z,6.7
2023-03-23T15:30:00.242Z,5.4
2023-03-23T15:40:00.240Z,6.6
2023-03-23T15:50:00.279Z,6.1
2023-03-23T16:00:00.234Z,12.0
2023-03-23T16:10:00.268Z,6.7
2023-03-23T16:20:00.255Z,17.9
2023-03-23T16:30:04.338Z,22.7
2023-03-23T16:40:00.275Z,15.0
2023-03-23T16:50:00.297Z,9.0
2023-03-23T17:00:00.255Z,7.8
2023-03-23T17:10:00.258Z,7.7
2023-03-23T17:20:00.272Z,9.8
2023-03-23T17:30:00.250Z,18.1
2023-03-23T17:40:00.257Z,22.1
2023-03-23T17:50:00.242Z,11.1
2023-03-23T18:00:00.244Z,25.1
2023-03-23T18:10:00.251Z,9.7
2023-03-23T18:20:00.245Z,12.6
2023-03-23T18:30:00.244Z,10.9
2023-03-23T18:40:00.292Z,8.7
2023-03-23T18:50:00.293Z,10.0
2023-03-23T19:00:00.363Z,11.9
2023-03-23T19:10:00.231Z,11.4
2023-03-23T19:20:01.587Z,11.1
2023-03-23T19:30:00.246Z,17.5
2023-03-23T19:40:06.622Z,16.0
2023-03-23T19:50:00.251Z,13.6
2023-03-23T20:00:00.248Z,15.4
2023-03-23T20:10:00.578Z,12.5
2023-03-23T20:20:00.258Z,10.3
2023-03-23T20:30:03.878Z,11.8
2023-03-23T20:40:00.265Z,15.6
2023-03-23T20:50:00.242Z,11.5
2023-03-23T21:00:00.240Z,14.1
2023-03-23T21:10:00.270Z,15.9
2023-03-23T21:20:00.239Z,20.1
2023-03-23T21:30:00.241Z,18.6
2023-03-23T21:40:00.299Z,19.6
2023-03-23T21:50:00.236Z,20.8
2023-03-23T22:00:00.240Z,18.5
2023-03-23T22:10:00.255Z,20.3
2023-03-23T22:20:00.234Z,20.6
2023-03-23T22:30:00.254Z,19.4
2023-03-23T22:40:00.253Z,20.1
2023-03-23T22:50:00.245Z,18.0
2023-03-23T23:00:00.297Z,17.9
2023-03-23T23:10:00.238Z,16.9
2023-03-23T23:20:00.239Z,17.2
2023-03-23T23:30:00.267Z,15.8
2023-03-23T23:40:00.289Z,15.1
2023-03-23T23:50:00.253Z,15.7
